Vohburg — V2OW7 — position and weather

sailwx.info

Track history (hours):
 
Tides and Currents Weather Stations Pressure Air Temp Water Temp Dewpoint Dewpoint Depression Visibility Wind Speed Wind Dir Waves Ship Positions

Vohburg

Last reported at 2015-May-25 19:31 UTC. Time now 2015-May-25 19:37 UTC.
Position N 51°07' E 003°45'.

Length 140 m; draft 6.4 m.

Type: Ship (hazmat cat A). MMSI: 305773000.

Date/timePositionNaut miles runAvg speedWind from/ knotsBaromVisibWave heightAir tempDewpointWater temp
2015-May-25 19:31N 51°07' E 003°45'0 0.0
2015-May-25 18:31N 51°07' E 003°45'0 0.0
2015-May-25 17:31N 51°07' E 003°45'0 0.0
2015-May-25 16:31N 51°07' E 003°45'2 2.5
2015-May-25 15:33N 51°09' E 003°47'7 7.3
2015-May-25 14:33N 51°16' E 003°50'4 4.2
2015-May-25 13:33N 51°20' E 003°49'1211.6
2015-May-25 12:33N 51°27' E 003°33'1313.3
2015-May-25 11:33N 51°38' E 003°21'6315.1
2015-May-25 07:24N 52°30' E 002°26'1315.2
2015-May-25 06:32N 52°42' E 002°15'1414.6
2015-May-25 05:33N 52°53' E 002°01'1414.5
2015-May-25 04:33N 53°01' E 001°41'1414.1
2015-May-25 03:33N 53°11' E 001°24'1414.2
2015-May-25 02:33N 53°22' E 001°09'2014.2
2015-May-25 01:10N 53°38' E 000°50'914.3
2015-May-25 00:33N 53°45' E 000°41'1514.6
2015-May-24 23:33N 53°56' E 000°25'1515.1
2015-May-24 22:33N 54°08' E 000°09'1515.5
2015-May-24 21:33N 54°19' W 000°09'1615.6
2015-May-24 20:33N 54°30' W 000°28'1615.6
2015-May-24 19:33N 54°37' W 000°52'10 1.9
2015-May-24 14:27N 54°36' W 001°09'0 0.0
2015-May-24 13:27N 54°36' W 001°09'0 0.0
2015-May-24 12:30N 54°36' W 001°09'5 5.0
2015-May-24 11:32N 54°41' W 001°07'1514.8
2015-May-24 10:32N 54°47' W 000°44'1414.6
2015-May-24 09:33N 54°54' W 000°21'39614.4
2015-May-23 06:06N 57°45' E 010°22'712.7
2015-May-23 05:33N 57°47' E 010°34'1212.2
2015-May-23 04:33N 57°43' E 010°56'1413.9
2015-May-23 03:33N 57°34' E 011°15'1414.3
2015-May-23 02:34N 57°22' E 011°30'1514.6
2015-May-23 01:33N 57°08' E 011°40'1414.3
2015-May-23 00:33N 56°55' E 011°49'1413.9
2015-May-22 23:33N 56°42' E 011°57'1414.1
2015-May-22 22:33N 56°28' E 012°06'1414.4
2015-May-22 21:33N 56°17' E 012°21'1515.5
2015-May-22 20:33N 56°04' E 012°38'1514.7
2015-May-22 19:33N 55°50' E 012°44'1414.3
2015-May-22 18:33N 55°36' E 012°42'1413.8
2015-May-22 17:33N 55°22' E 012°40'1312.9
2015-May-22 16:34N 55°15' E 012°59'1514.9
2015-May-22 15:34N 55°14' E 013°26'1515.1
2015-May-22 14:33N 55°14' E 013°52'1514.9
2015-May-22 13:33N 55°14' E 014°18'1514.9
2015-May-22 12:33N 55°25' E 014°36'1514.9
2015-May-22 11:33N 55°33' E 014°58'1514.9
2015-May-22 10:33N 55°41' E 015°21'1815.0
2015-May-22 09:21N 55°50' E 015°49'325 6.9
2015-May-20 10:26N 59°36' E 023°06'1314.3
2015-May-20 09:33N 59°39' E 023°30'1514.5
2015-May-20 08:32N 59°43' E 023°58'1414.1
2015-May-20 07:32N 59°47' E 024°26'5614.0
2015-May-20 03:33N 59°59' E 026°15'1414.5
2015-May-20 02:33N 60°01' E 026°43'1514.1
2015-May-20 01:31N 60°02' E 027°12'1514.5
2015-May-20 00:28N 60°10' E 027°38'5514.0
2015-May-19 20:31N 60°02' E 029°28'8 7.3
2015-May-19 19:29N 60°00' E 029°43'0 0.0
2015-May-19 18:32N 60°00' E 029°43'0 0.0
2015-May-19 17:32N 60°00' E 029°43'0 0.0
2015-May-19 16:29N 60°00' E 029°43'0 0.0
2015-May-19 14:29N 60°00' E 029°43'0 0.0
2015-May-19 11:29N 60°00' E 029°43'0 0.0
2015-May-19 09:32N 60°00' E 029°43'0 0.0
2015-May-19 08:32N 60°00' E 029°43'0 0.0
2015-May-19 07:32N 60°00' E 029°43'0 0.0
2015-May-19 06:32N 60°00' E 029°43'0 0.0
2015-May-19 05:29N 60°00' E 029°43'1 1.0
2015-May-19 04:33N 59°59' E 029°42'8112.5
2015-May-18 22:04N 59°58' E 027°00'5 9.9
2015-May-18 21:34N 59°59' E 026°50'1010.4
2015-May-18 20:34N 59°58' E 026°29'4013.3
2015-May-18 17:33N 60°07' E 025°12'5 1.8
2015-May-18 14:32N 60°13' E 025°11'0 0.0
2015-May-18 13:26N 60°13' E 025°11'0 0.0
2015-May-18 12:32N 60°13' E 025°11'0 0.0
2015-May-18 11:26N 60°13' E 025°11'0 0.0
2015-May-18 10:32N 60°13' E 025°11'0 0.0
2015-May-18 09:32N 60°13' E 025°11'0 0.0
2015-May-18 08:32N 60°13' E 025°11'0 0.2
2015-May-18 07:33N 60°13' E 025°12'3712.2
2015-May-18 04:33N 59°44' E 024°26'1714.9
2015-May-18 03:26N 59°39' E 023°55'1314.8
2015-May-18 02:33N 59°35' E 023°31'329 7.6
2015-May-16 07:15N 55°49' E 016°02'1014.5
2015-May-16 06:33N 55°44' E 015°46'1514.9
2015-May-16 05:33N 55°37' E 015°23'1515.1
2015-May-16 04:33N 55°30' E 014°59'1515.0
2015-May-16 03:33N 55°22' E 014°37'1515.0
2015-May-16 02:33N 55°11' E 014°20'1514.6
2015-May-16 01:33N 55°00' E 014°01'2014.8
2015-May-16 00:12N 54°54' E 013°29'3114.6
2015-May-15 22:06N 54°43' E 012°39'814.8
2015-May-15 21:32N 54°38' E 012°27'1414.7
2015-May-15 20:33N 54°27' E 012°12'1514.8
2015-May-15 19:33N 54°18' E 011°51'  
Track history (hours):
 
Tides and Currents Weather Stations Pressure Air Temp Water Temp Dewpoint Dewpoint Depression Visibility Wind Speed Wind Dir Waves Ship Positions

Vohburg

Last reported at 2015-May-25 19:31 UTC. Time now 2015-May-25 19:37 UTC.
Position N 51°07' E 003°45'.

Length 140 m; draft 6.4 m.

Type: Ship (hazmat cat A). MMSI: 305773000.

Date/timePositionNaut miles runAvg speedWind from/ knotsBaromVisibWave heightAir tempDewpointWater temp
2015-May-25 19:31N 51°07' E 003°45'0 0.0
2015-May-25 18:31N 51°07' E 003°45'0 0.0
2015-May-25 17:31N 51°07' E 003°45'0 0.0
2015-May-25 16:31N 51°07' E 003°45'2 2.5
2015-May-25 15:33N 51°09' E 003°47'7 7.3
2015-May-25 14:33N 51°16' E 003°50'4 4.2
2015-May-25 13:33N 51°20' E 003°49'1211.6
2015-May-25 12:33N 51°27' E 003°33'1313.3
2015-May-25 11:33N 51°38' E 003°21'6315.1
2015-May-25 07:24N 52°30' E 002°26'1315.2
2015-May-25 06:32N 52°42' E 002°15'1414.6
2015-May-25 05:33N 52°53' E 002°01'1414.5
2015-May-25 04:33N 53°01' E 001°41'1414.1
2015-May-25 03:33N 53°11' E 001°24'1414.2
2015-May-25 02:33N 53°22' E 001°09'2014.2
2015-May-25 01:10N 53°38' E 000°50'914.3
2015-May-25 00:33N 53°45' E 000°41'1514.6
2015-May-24 23:33N 53°56' E 000°25'1515.1
2015-May-24 22:33N 54°08' E 000°09'1515.5
2015-May-24 21:33N 54°19' W 000°09'1615.6
2015-May-24 20:33N 54°30' W 000°28'1615.6
2015-May-24 19:33N 54°37' W 000°52'10 1.9
2015-May-24 14:27N 54°36' W 001°09'0 0.0
2015-May-24 13:27N 54°36' W 001°09'0 0.0
2015-May-24 12:30N 54°36' W 001°09'5 5.0
2015-May-24 11:32N 54°41' W 001°07'1514.8
2015-May-24 10:32N 54°47' W 000°44'1414.6
2015-May-24 09:33N 54°54' W 000°21'39614.4
2015-May-23 06:06N 57°45' E 010°22'712.7
2015-May-23 05:33N 57°47' E 010°34'1212.2
2015-May-23 04:33N 57°43' E 010°56'1413.9
2015-May-23 03:33N 57°34' E 011°15'1414.3
2015-May-23 02:34N 57°22' E 011°30'1514.6
2015-May-23 01:33N 57°08' E 011°40'1414.3
2015-May-23 00:33N 56°55' E 011°49'1413.9
2015-May-22 23:33N 56°42' E 011°57'1414.1
2015-May-22 22:33N 56°28' E 012°06'1414.4
2015-May-22 21:33N 56°17' E 012°21'1515.5
2015-May-22 20:33N 56°04' E 012°38'1514.7
2015-May-22 19:33N 55°50' E 012°44'1414.3
2015-May-22 18:33N 55°36' E 012°42'1413.8
2015-May-22 17:33N 55°22' E 012°40'1312.9
2015-May-22 16:34N 55°15' E 012°59'1514.9
2015-May-22 15:34N 55°14' E 013°26'1515.1
2015-May-22 14:33N 55°14' E 013°52'1514.9
2015-May-22 13:33N 55°14' E 014°18'1514.9
2015-May-22 12:33N 55°25' E 014°36'1514.9
2015-May-22 11:33N 55°33' E 014°58'1514.9
2015-May-22 10:33N 55°41' E 015°21'1815.0
2015-May-22 09:21N 55°50' E 015°49'325 6.9
2015-May-20 10:26N 59°36' E 023°06'1314.3
2015-May-20 09:33N 59°39' E 023°30'1514.5
2015-May-20 08:32N 59°43' E 023°58'1414.1
2015-May-20 07:32N 59°47' E 024°26'5614.0
2015-May-20 03:33N 59°59' E 026°15'1414.5
2015-May-20 02:33N 60°01' E 026°43'1514.1
2015-May-20 01:31N 60°02' E 027°12'1514.5
2015-May-20 00:28N 60°10' E 027°38'5514.0
2015-May-19 20:31N 60°02' E 029°28'8 7.3
2015-May-19 19:29N 60°00' E 029°43'0 0.0
2015-May-19 18:32N 60°00' E 029°43'0 0.0
2015-May-19 17:32N 60°00' E 029°43'0 0.0
2015-May-19 16:29N 60°00' E 029°43'0 0.0
2015-May-19 14:29N 60°00' E 029°43'0 0.0
2015-May-19 11:29N 60°00' E 029°43'0 0.0
2015-May-19 09:32N 60°00' E 029°43'0 0.0
2015-May-19 08:32N 60°00' E 029°43'0 0.0
2015-May-19 07:32N 60°00' E 029°43'0 0.0
2015-May-19 06:32N 60°00' E 029°43'0 0.0
2015-May-19 05:29N 60°00' E 029°43'1 1.0
2015-May-19 04:33N 59°59' E 029°42'8112.5
2015-May-18 22:04N 59°58' E 027°00'5 9.9
2015-May-18 21:34N 59°59' E 026°50'1010.4
2015-May-18 20:34N 59°58' E 026°29'4013.3
2015-May-18 17:33N 60°07' E 025°12'5 1.8
2015-May-18 14:32N 60°13' E 025°11'0 0.0
2015-May-18 13:26N 60°13' E 025°11'0 0.0
2015-May-18 12:32N 60°13' E 025°11'0 0.0
2015-May-18 11:26N 60°13' E 025°11'0 0.0
2015-May-18 10:32N 60°13' E 025°11'0 0.0
2015-May-18 09:32N 60°13' E 025°11'0 0.0
2015-May-18 08:32N 60°13' E 025°11'0 0.2
2015-May-18 07:33N 60°13' E 025°12'3712.2
2015-May-18 04:33N 59°44' E 024°26'1714.9
2015-May-18 03:26N 59°39' E 023°55'1314.8
2015-May-18 02:33N 59°35' E 023°31'329 7.6
2015-May-16 07:15N 55°49' E 016°02'1014.5
2015-May-16 06:33N 55°44' E 015°46'1514.9
2015-May-16 05:33N 55°37' E 015°23'1515.1
2015-May-16 04:33N 55°30' E 014°59'1515.0
2015-May-16 03:33N 55°22' E 014°37'1515.0
2015-May-16 02:33N 55°11' E 014°20'1514.6
2015-May-16 01:33N 55°00' E 014°01'2014.8
2015-May-16 00:12N 54°54' E 013°29'3114.6
2015-May-15 22:06N 54°43' E 012°39'814.8
2015-May-15 21:32N 54°38' E 012°27'1414.7
2015-May-15 20:33N 54°27' E 012°12'1514.8
2015-May-15 19:33N 54°18' E 011°51'  

Dump ship's entire track history